createdAt,value
2023-05-21T00:02:17.301Z,99142.59
2023-05-21T00:04:47.489Z,99117.22
2023-05-21T00:07:15.253Z,98899.69
2023-05-21T00:09:41.775Z,98761.94
2023-05-21T00:12:08.617Z,98757.94
2023-05-21T00:14:35.384Z,98799.22
2023-05-21T00:17:01.827Z,98823.00
2023-05-21T00:19:28.301Z,98803.09
2023-05-21T00:21:54.839Z,98768.25
2023-05-21T00:24:21.247Z,98648.22
2023-05-21T00:26:47.689Z,98555.19
2023-05-21T00:29:14.125Z,98483.50
2023-05-21T00:31:40.576Z,98413.97
2023-05-21T00:34:07.007Z,98389.22
2023-05-21T00:36:34.646Z,98439.84
2023-05-21T00:39:02.330Z,98463.00
2023-05-21T00:41:30.196Z,98410.63
2023-05-21T00:43:57.332Z,98405.56
2023-05-21T00:46:23.841Z,98260.63
2023-05-21T00:48:50.634Z,98057.81
2023-05-21T00:51:18.408Z,97909.16
2023-05-21T00:53:45.072Z,97704.06
2023-05-21T00:56:11.532Z,97705.44
2023-05-21T00:58:38.674Z,97794.84
2023-05-21T01:01:06.757Z,97830.97
2023-05-21T01:03:38.566Z,97764.06
2023-05-21T01:06:06.132Z,97722.72
2023-05-21T01:08:34.809Z,97712.88
2023-05-21T01:11:02.105Z,97734.81
2023-05-21T01:13:28.586Z,97491.69
2023-05-21T01:15:55.029Z,97252.22
2023-05-21T01:18:21.511Z,97150.03
2023-05-21T01:20:50.920Z,96992.88
2023-05-21T01:23:17.644Z,96865.50
2023-05-21T01:25:44.533Z,96799.78
2023-05-21T01:28:11.402Z,96785.84
2023-05-21T01:30:38.197Z,96751.13
2023-05-21T01:33:13.154Z,96736.72
2023-05-21T01:35:43.121Z,96889.47
2023-05-21T01:38:18.317Z,96881.56
2023-05-21T01:41:04.352Z,96779.00
2023-05-21T01:43:32.881Z,96689.28
2023-05-21T01:45:59.438Z,96678.47
2023-05-21T01:48:27.200Z,96721.63
2023-05-21T01:50:55.333Z,96659.69
2023-05-21T01:53:22.126Z,96521.75
2023-05-21T01:55:48.581Z,96405.38
2023-05-21T01:58:18.606Z,96301.75
2023-05-21T02:00:47.923Z,96190.13
2023-05-21T02:03:17.480Z,96118.09
2023-05-21T02:05:44.220Z,96053.59
2023-05-21T02:08:11.168Z,96008.59
2023-05-21T02:10:37.597Z,96011.59
2023-05-21T02:13:04.209Z,95990.75
2023-05-21T02:15:30.624Z,96024.03
2023-05-21T02:17:58.294Z,95980.06
2023-05-21T02:20:25.053Z,95923.63
2023-05-21T02:22:51.460Z,95958.91
2023-05-21T02:25:18.465Z,96094.25
2023-05-21T02:27:46.780Z,96131.97
2023-05-21T02:30:14.600Z,96092.75
2023-05-21T02:32:44.910Z,96114.25
2023-05-21T02:35:13.037Z,96134.44
2023-05-21T02:37:43.908Z,96183.44
2023-05-21T02:40:11.121Z,96167.69
2023-05-21T02:42:39.681Z,96169.69
2023-05-21T02:45:11.213Z,96227.91
2023-05-21T02:47:38.643Z,96249.25
2023-05-21T02:50:06.685Z,96171.13
2023-05-21T02:52:33.107Z,96197.53
2023-05-21T02:54:59.543Z,96333.31
2023-05-21T02:57:26.256Z,96046.13
2023-05-21T02:59:52.702Z,95932.00
2023-05-21T03:02:19.190Z,95913.47
2023-05-21T03:04:48.923Z,95673.13
2023-05-21T03:07:15.749Z,94742.53
2023-05-21T03:09:42.438Z,94682.63
2023-05-21T03:12:10.523Z,94628.31
2023-05-21T03:14:37.223Z,94703.16
2023-05-21T03:17:05.980Z,95666.09
2023-05-21T03:19:35.753Z,95554.78
2023-05-21T03:22:03.204Z,94170.03
2023-05-21T03:24:30.560Z,94145.84
2023-05-21T03:26:57.605Z,94157.16
2023-05-21T03:29:24.039Z,94143.84
2023-05-21T03:31:52.718Z,94083.91
2023-05-21T03:34:20.144Z,94088.56
2023-05-21T03:36:47.257Z,94158.53
2023-05-21T03:39:13.690Z,94220.88
2023-05-21T03:41:40.316Z,94210.22
2023-05-21T03:44:06.760Z,94160.78
2023-05-21T03:46:33.459Z,94143.47
2023-05-21T03:49:00.061Z,94107.53
2023-05-21T03:51:27.412Z,94131.13
2023-05-21T03:53:53.827Z,94109.56
2023-05-21T03:56:21.597Z,94095.44
2023-05-21T03:58:48.067Z,94057.72
2023-05-21T04:01:14.594Z,93993.00
2023-05-21T04:03:41.479Z,93899.81
2023-05-21T04:06:10.009Z,93881.31
2023-05-21T04:08:37.957Z,93789.31
2023-05-21T04:11:04.692Z,93697.63
2023-05-21T04:13:31.142Z,93703.34
2023-05-21T04:15:57.592Z,93684.69
2023-05-21T04:18:26.162Z,93645.56
2023-05-21T04:20:52.797Z,93339.03
2023-05-21T04:23:19.265Z,93153.91
2023-05-21T04:25:45.737Z,93092.59
2023-05-21T04:28:12.222Z,93067.50
2023-05-21T04:30:38.700Z,93053.34
2023-05-21T04:33:05.191Z,93069.25
2023-05-21T04:35:31.885Z,93081.91
2023-05-21T04:37:58.398Z,93123.63
2023-05-21T04:40:25.007Z,93168.44
2023-05-21T04:42:51.433Z,93193.72
2023-05-21T04:45:17.972Z,93217.53
2023-05-21T04:47:44.607Z,93376.44
2023-05-21T04:50:11.052Z,93400.81
2023-05-21T04:52:40.238Z,93458.88
2023-05-21T04:55:10.013Z,93488.56
2023-05-21T04:57:36.894Z,93525.41
2023-05-21T05:00:06.070Z,93536.13
2023-05-21T05:02:32.674Z,93556.25
2023-05-21T05:04:59.873Z,93566.19
2023-05-21T05:07:26.676Z,93627.94
2023-05-21T05:09:53.282Z,93663.72
2023-05-21T05:12:19.702Z,93714.97
2023-05-21T05:14:46.224Z,93775.06
2023-05-21T05:17:15.784Z,93834.00
2023-05-21T05:19:42.327Z,93882.59
2023-05-21T05:22:08.768Z,93922.41
2023-05-21T05:24:35.353Z,93962.75
2023-05-21T05:27:01.765Z,94011.22
2023-05-21T05:29:28.201Z,94057.28
2023-05-21T05:31:54.681Z,94124.00
2023-05-21T05:34:21.534Z,94115.91
2023-05-21T05:36:47.969Z,94111.38
2023-05-21T05:39:14.482Z,94112.53
2023-05-21T05:41:41.042Z,94104.81
2023-05-21T05:44:10.214Z,94156.97
2023-05-21T05:46:37.367Z,94198.97
2023-05-21T05:49:03.850Z,94204.97
2023-05-21T05:51:30.656Z,94231.19
2023-05-21T05:53:57.319Z,94262.28
2023-05-21T05:56:23.828Z,94342.72
2023-05-21T05:58:50.572Z,94384.03
2023-05-21T06:01:17.776Z,94417.75
2023-05-21T06:03:44.438Z,94494.66
2023-05-21T06:06:11.878Z,94544.81
2023-05-21T06:08:40.714Z,94632.88
2023-05-21T06:11:07.163Z,94662.00
2023-05-21T06:13:33.739Z,94693.94
2023-05-21T06:16:00.427Z,94710.31
2023-05-21T06:18:29.299Z,94774.91
2023-05-21T06:20:55.718Z,94791.53
2023-05-21T06:23:22.306Z,94787.47
2023-05-21T06:25:48.734Z,94791.53
2023-05-21T06:28:15.724Z,94851.88
2023-05-21T06:30:42.266Z,94873.75
2023-05-21T06:33:08.789Z,94870.06
2023-05-21T06:35:37.211Z,94996.50
2023-05-21T06:38:03.947Z,95065.84
2023-05-21T06:40:30.488Z,95151.38
2023-05-21T06:42:57.892Z,95212.59
2023-05-21T06:45:24.597Z,95235.75
2023-05-21T06:47:51.180Z,95293.53
2023-05-21T06:50:17.696Z,95382.22
2023-05-21T06:52:44.136Z,95463.19
2023-05-21T06:55:10.630Z,95621.66
2023-05-21T06:57:37.924Z,95713.91
2023-05-21T07:00:05.704Z,95745.25
2023-05-21T07:02:32.266Z,95923.22
2023-05-21T07:04:58.943Z,96103.97
2023-05-21T07:07:25.942Z,96187.78
2023-05-21T07:09:52.362Z,96250.91
2023-05-21T07:12:18.766Z,96278.78
2023-05-21T07:14:45.352Z,96416.75
2023-05-21T07:17:11.909Z,96594.19
2023-05-21T07:19:38.362Z,96747.91
2023-05-21T07:22:05.999Z,96839.88
2023-05-21T07:24:32.409Z,96859.22
2023-05-21T07:26:58.840Z,96909.59
2023-05-21T07:29:25.275Z,96887.78
2023-05-21T07:31:51.664Z,96917.00
2023-05-21T07:34:18.060Z,96901.66
2023-05-21T07:36:45.180Z,97011.56
2023-05-21T07:39:11.999Z,97034.88
2023-05-21T07:41:38.413Z,97137.88
2023-05-21T07:44:05.084Z,97173.56
2023-05-21T07:46:31.558Z,97173.56
2023-05-21T07:48:58.015Z,97115.72
2023-05-21T07:51:24.502Z,97172.94
2023-05-21T07:53:51.137Z,97187.47
2023-05-21T07:56:18.251Z,97131.75
2023-05-21T07:58:46.011Z,97160.72
2023-05-21T08:01:12.551Z,97215.78
2023-05-21T08:03:39.186Z,97316.53
2023-05-21T08:06:06.034Z,97342.38
2023-05-21T08:08:32.701Z,97363.41
2023-05-21T08:10:59.175Z,97342.09
2023-05-21T08:13:26.023Z,97314.28
2023-05-21T08:15:53.380Z,97453.38
2023-05-21T08:18:20.096Z,97498.75
2023-05-21T08:20:46.708Z,97470.97
2023-05-21T08:23:13.182Z,97581.97
2023-05-21T08:25:39.776Z,97632.66
2023-05-21T08:28:07.230Z,97731.38
2023-05-21T08:30:33.996Z,97728.78
2023-05-21T08:33:01.169Z,97753.06
2023-05-21T08:35:27.808Z,97787.94
2023-05-21T08:37:54.229Z,97900.72
2023-05-21T08:40:20.781Z,97856.25
2023-05-21T08:42:50.480Z,97877.38
2023-05-21T08:45:21.125Z,97928.94
2023-05-21T08:47:47.719Z,97971.88
2023-05-21T08:50:14.743Z,97978.75
2023-05-21T08:52:41.251Z,98034.41
2023-05-21T08:55:08.743Z,97985.38
2023-05-21T08:57:35.335Z,97984.13
2023-05-21T09:00:02.067Z,98118.19
2023-05-21T09:02:30.492Z,98097.69
2023-05-21T09:04:57.608Z,98145.25
2023-05-21T09:07:30.968Z,98255.81
2023-05-21T09:10:03.835Z,98234.56
2023-05-21T09:12:30.290Z,98276.31
2023-05-21T09:14:58.374Z,98196.03
2023-05-21T09:17:25.020Z,98171.88
2023-05-21T09:20:11.075Z,98152.06
2023-05-21T09:22:40.618Z,98208.63
2023-05-21T09:25:10.639Z,98244.31
2023-05-21T09:27:37.174Z,98287.59
2023-05-21T09:30:04.403Z,98273.72
2023-05-21T09:32:33.599Z,98259.88
2023-05-21T09:35:09.637Z,98290.78
2023-05-21T09:37:47.638Z,98324.34
2023-05-21T09:40:18.160Z,98391.72
2023-05-21T09:42:48.296Z,98436.09
2023-05-21T09:45:18.572Z,98490.16
2023-05-21T09:47:45.905Z,98485.56
2023-05-21T09:50:19.206Z,98496.31
2023-05-21T09:52:45.905Z,98472.34
2023-05-21T09:55:13.647Z,98487.00
2023-05-21T09:57:44.246Z,98523.69
2023-05-21T10:00:17.920Z,98543.59
2023-05-21T10:02:48.524Z,98506.03
2023-05-21T10:05:15.930Z,98528.28
2023-05-21T10:07:54.372Z,98515.50
2023-05-21T10:10:22.608Z,98534.94
2023-05-21T10:12:55.696Z,98581.34
2023-05-21T10:15:23.875Z,98590.03
2023-05-21T10:17:50.423Z,98676.66
2023-05-21T10:20:17.426Z,98747.94
2023-05-21T10:22:44.391Z,98773.63
2023-05-21T10:25:12.920Z,98822.59
2023-05-21T10:27:39.414Z,98823.63
2023-05-21T10:30:07.041Z,98904.28
2023-05-21T10:32:33.851Z,98922.63
2023-05-21T10:35:01.811Z,98907.25
2023-05-21T10:37:28.686Z,99040.91
2023-05-21T10:39:55.746Z,99148.47
2023-05-21T10:42:31.358Z,99243.06
2023-05-21T10:45:13.155Z,99219.94
2023-05-21T10:48:02.120Z,99358.44
2023-05-21T10:50:46.926Z,99329.50
2023-05-21T10:56:18.021Z,99415.91
2023-05-21T10:59:09.279Z,99474.22
2023-05-21T11:01:37.714Z,99514.78
2023-05-21T11:04:05.119Z,99509.16
2023-05-21T11:06:31.552Z,99534.78
2023-05-21T11:09:02.064Z,99604.78
2023-05-21T11:11:50.855Z,99711.09
2023-05-21T11:14:35.500Z,99727.44
2023-05-21T11:17:03.507Z,99743.53
2023-05-21T11:19:48.939Z,99807.84
2023-05-21T11:22:26.579Z,99989.06
2023-05-21T11:24:54.257Z,100295.09
2023-05-21T11:27:36.342Z,100490.63
2023-05-21T11:30:09.812Z,100619.69
2023-05-21T11:32:40.284Z,100695.59
2023-05-21T11:35:07.152Z,100727.41
2023-05-21T11:37:34.704Z,100772.53
2023-05-21T11:40:17.946Z,100816.03
2023-05-21T11:42:48.621Z,100821.00
2023-05-21T11:45:17.494Z,100847.06
2023-05-21T11:47:44.026Z,100829.97
2023-05-21T11:50:14.550Z,100839.19
2023-05-21T11:52:42.112Z,100848.81
2023-05-21T11:55:08.940Z,100862.69
2023-05-21T11:57:35.725Z,100866.69
2023-05-21T12:00:02.551Z,100864.41
2023-05-21T12:02:32.559Z,100855.59
2023-05-21T12:05:00.698Z,100856.06
2023-05-21T12:07:31.383Z,100846.56
2023-05-21T12:09:58.503Z,100852.72
2023-05-21T12:12:26.335Z,100855.56
2023-05-21T12:14:54.166Z,100864.41
2023-05-21T12:17:21.767Z,100850.22
2023-05-21T12:19:49.274Z,100847.50
2023-05-21T12:22:16.609Z,100849.94
2023-05-21T12:24:43.848Z,100849.09
2023-05-21T12:27:10.594Z,100852.50
2023-05-21T12:29:38.194Z,100851.66
2023-05-21T12:32:09.184Z,100857.81
2023-05-21T12:34:42.489Z,100850.09
2023-05-21T12:37:09.092Z,100849.44
2023-05-21T12:39:43.613Z,100851.38
2023-05-21T12:42:10.119Z,100839.56
2023-05-21T12:44:38.147Z,100853.69
2023-05-21T12:47:04.678Z,100840.66
2023-05-21T12:49:35.606Z,100841.72
2023-05-21T12:52:12.352Z,100829.28
2023-05-21T12:54:39.757Z,100844.81
2023-05-21T12:57:10.408Z,100844.72
2023-05-21T12:59:56.675Z,100843.00
2023-05-21T13:02:28.933Z,100830.50
2023-05-21T13:05:05.628Z,100831.00
2023-05-21T13:07:33.307Z,100833.28
2023-05-21T13:10:00.457Z,100826.00
2023-05-21T13:12:28.864Z,100822.88
2023-05-21T13:14:56.847Z,100822.38
2023-05-21T13:17:23.847Z,100830.72
2023-05-21T13:20:26.637Z,100819.34
2023-05-21T13:22:53.226Z,100815.00
2023-05-21T13:25:21.249Z,100819.81
2023-05-21T13:27:48.760Z,100820.63
2023-05-21T13:30:15.394Z,100819.06
2023-05-21T13:32:42.296Z,100814.38
2023-05-21T13:35:10.045Z,100814.03
2023-05-21T13:37:36.748Z,100811.63
2023-05-21T13:40:07.693Z,100806.84
2023-05-21T13:42:34.739Z,100809.28
2023-05-21T13:45:01.243Z,100811.06
2023-05-21T13:47:27.757Z,100801.75
2023-05-21T13:49:54.419Z,100800.41
2023-05-21T13:52:21.565Z,100797.13
2023-05-21T13:54:48.054Z,100797.06
2023-05-21T13:57:15.273Z,100801.53
2023-05-21T13:59:41.749Z,100800.56
2023-05-21T14:02:08.986Z,100794.75
2023-05-21T14:04:37.162Z,100790.44
2023-05-21T14:07:06.478Z,100795.06
2023-05-21T14:09:32.913Z,100786.97
2023-05-21T14:11:59.487Z,100795.16
2023-05-21T14:14:25.917Z,100783.75
2023-05-21T14:16:52.393Z,100780.47
2023-05-21T14:19:19.122Z,100782.06
2023-05-21T14:21:45.761Z,100791.72
2023-05-21T14:24:12.253Z,100782.72
2023-05-21T14:26:40.731Z,100791.66
2023-05-21T14:29:07.216Z,100778.84
2023-05-21T14:31:33.647Z,100780.38
2023-05-21T14:34:00.328Z,100778.25
2023-05-21T14:36:26.835Z,100774.53
2023-05-21T14:38:53.284Z,100774.41
2023-05-21T14:41:19.705Z,100775.19
2023-05-21T14:43:46.223Z,100773.97
2023-05-21T14:46:12.651Z,100773.25
2023-05-21T14:48:39.123Z,100781.03
2023-05-21T14:51:05.779Z,100788.34
2023-05-21T14:53:32.319Z,100791.56
2023-05-21T14:55:59.011Z,100783.25
2023-05-21T14:58:25.456Z,100777.91
2023-05-21T15:00:51.872Z,100778.03
2023-05-21T15:03:18.450Z,100767.97
2023-05-21T15:05:44.934Z,100767.66
2023-05-21T15:08:11.388Z,100768.19
2023-05-21T15:10:38.093Z,100766.66
2023-05-21T15:13:04.524Z,100773.09
2023-05-21T15:15:30.923Z,100760.03
2023-05-21T15:17:58.230Z,100769.47
2023-05-21T15:20:24.804Z,100768.53
2023-05-21T15:22:53.514Z,100757.50
2023-05-21T15:25:23.495Z,100761.56
2023-05-21T15:27:50.582Z,100761.19
2023-05-21T15:30:17.329Z,100753.88
2023-05-21T15:32:43.876Z,100756.41
2023-05-21T15:35:10.448Z,100745.16
2023-05-21T15:37:37.143Z,100737.81
2023-05-21T15:40:04.301Z,100742.25
2023-05-21T15:42:31.788Z,100742.31
2023-05-21T15:44:58.468Z,100743.22
2023-05-21T15:47:25.056Z,100730.59
2023-05-21T15:49:51.736Z,100735.34
2023-05-21T15:52:19.791Z,100738.81
2023-05-21T15:54:47.023Z,100735.88
2023-05-21T15:57:13.473Z,100732.72
2023-05-21T15:59:39.971Z,100722.81
2023-05-21T16:02:06.708Z,100735.25
2023-05-21T16:04:33.872Z,100738.75
2023-05-21T16:07:00.385Z,100737.44
2023-05-21T16:09:26.813Z,100733.78
2023-05-21T16:11:53.230Z,100732.25
2023-05-21T16:14:19.635Z,100726.66
2023-05-21T16:16:46.167Z,100719.56
2023-05-21T16:19:12.676Z,100725.41
2023-05-21T16:21:39.114Z,100726.34
2023-05-21T16:24:06.558Z,100723.59
2023-05-21T16:26:33.002Z,100728.91
2023-05-21T16:28:59.944Z,100729.66
2023-05-21T16:31:26.617Z,100718.09
2023-05-21T16:33:53.138Z,100720.75
2023-05-21T16:36:19.574Z,100720.19
2023-05-21T16:38:46.071Z,100724.16
2023-05-21T16:41:12.593Z,100721.50
2023-05-21T16:43:39.103Z,100717.19
2023-05-21T16:46:06.101Z,100722.91
2023-05-21T16:48:32.774Z,100727.09
2023-05-21T16:50:59.636Z,100727.41
2023-05-21T16:53:26.887Z,100723.22
2023-05-21T16:55:53.450Z,100731.19
2023-05-21T16:58:19.926Z,100723.97
2023-05-21T17:00:46.535Z,100722.97
2023-05-21T17:03:13.030Z,100716.41
2023-05-21T17:05:39.557Z,100720.66
2023-05-21T17:08:06.072Z,100720.41
2023-05-21T17:10:32.520Z,100733.19
2023-05-21T17:13:01.858Z,100733.81
2023-05-21T17:15:33.273Z,100730.03
2023-05-21T17:17:59.760Z,100727.19
2023-05-21T17:20:26.433Z,100726.19
2023-05-21T17:22:52.966Z,100733.56
2023-05-21T17:25:19.524Z,100728.22
2023-05-21T17:27:45.973Z,100726.00
2023-05-21T17:30:12.878Z,100722.06
2023-05-21T17:32:39.327Z,100730.28
2023-05-21T17:35:06.438Z,100723.19
2023-05-21T17:37:32.953Z,100728.84
2023-05-21T17:39:59.448Z,100724.88
2023-05-21T17:42:26.091Z,100724.03
2023-05-21T17:44:53.552Z,100725.16
2023-05-21T17:47:20.023Z,100720.34
2023-05-21T17:49:46.549Z,100732.16
2023-05-21T17:52:12.983Z,100722.38
2023-05-21T17:54:39.490Z,100720.19
2023-05-21T17:57:06.135Z,100718.16
2023-05-21T17:59:32.628Z,100722.13
2023-05-21T18:02:01.380Z,100719.84
2023-05-21T18:04:27.875Z,100722.31
2023-05-21T18:06:54.418Z,100729.91
2023-05-21T18:09:20.905Z,100726.91
2023-05-21T18:11:47.314Z,100724.81
2023-05-21T18:14:13.964Z,100717.13
2023-05-21T18:16:40.955Z,100727.78
2023-05-21T18:19:07.498Z,100720.31
2023-05-21T18:21:34.592Z,100723.06
2023-05-21T18:24:01.968Z,100714.81
2023-05-21T18:26:30.058Z,100715.06
2023-05-21T18:28:57.827Z,100718.31
2023-05-21T18:31:24.712Z,100714.78
2023-05-21T18:33:51.445Z,100722.22
2023-05-21T18:36:18.158Z,100710.78
2023-05-21T18:38:45.768Z,100719.34
2023-05-21T18:41:12.287Z,100715.88
2023-05-21T18:43:38.827Z,100713.19
2023-05-21T18:46:05.358Z,100712.44
2023-05-21T18:48:31.859Z,100709.66
2023-05-21T18:50:58.459Z,100691.50
2023-05-21T18:53:24.885Z,100693.69
2023-05-21T18:55:51.366Z,100670.88
2023-05-21T18:58:18.023Z,100670.22
2023-05-21T19:00:44.463Z,100632.72
2023-05-21T19:03:11.248Z,100612.41
2023-05-21T19:05:37.919Z,100564.38
2023-05-21T19:08:04.682Z,100524.34
2023-05-21T19:10:32.280Z,100527.84
2023-05-21T19:12:58.859Z,100533.94
2023-05-21T19:15:25.451Z,100540.44
2023-05-21T19:17:51.904Z,100542.25
2023-05-21T19:20:24.335Z,100554.84
2023-05-21T19:22:50.940Z,100545.78
2023-05-21T19:25:17.382Z,100537.59
2023-05-21T19:27:44.191Z,100510.75
2023-05-21T19:30:11.095Z,100495.41
2023-05-21T19:32:37.551Z,100457.25
2023-05-21T19:35:07.518Z,100394.13
2023-05-21T19:37:33.968Z,100432.25
2023-05-21T19:40:00.426Z,100388.03
2023-05-21T19:42:27.096Z,100422.03
2023-05-21T19:44:53.533Z,100437.56
2023-05-21T19:47:19.961Z,100440.34
2023-05-21T19:49:46.527Z,100486.72
2023-05-21T19:52:12.938Z,100493.41
2023-05-21T19:54:39.544Z,100507.72
2023-05-21T19:57:06.771Z,100488.28
2023-05-21T19:59:33.292Z,100501.13
2023-05-21T20:01:59.766Z,100516.88
2023-05-21T20:04:27.024Z,100478.97
2023-05-21T20:06:53.473Z,100471.41
2023-05-21T20:09:19.945Z,100428.41
2023-05-21T20:11:48.312Z,100463.91
2023-05-21T20:14:14.803Z,100441.47
2023-05-21T20:16:42.288Z,100480.78
2023-05-21T20:19:10.597Z,100378.09
2023-05-21T20:21:37.097Z,100387.16
2023-05-21T20:24:03.920Z,100282.72
2023-05-21T20:26:34.899Z,100259.41
2023-05-21T20:29:01.448Z,100192.97
2023-05-21T20:31:27.937Z,100225.16
2023-05-21T20:33:54.490Z,100162.16
2023-05-21T20:36:21.233Z,100165.03
2023-05-21T20:38:48.258Z,100121.97
2023-05-21T20:41:14.698Z,100035.59
2023-05-21T20:43:41.165Z,99999.72
2023-05-21T20:46:07.692Z,99966.28
2023-05-21T20:48:35.223Z,99947.38
2023-05-21T20:51:03.263Z,99929.97
2023-05-21T20:53:29.779Z,99908.88
2023-05-21T20:55:56.276Z,99913.94
2023-05-21T20:58:25.633Z,99883.19
2023-05-21T21:00:52.195Z,99878.34
2023-05-21T21:03:21.515Z,99895.31
2023-05-21T21:05:48.235Z,99878.84
2023-05-21T21:08:16.023Z,99865.03
2023-05-21T21:10:46.579Z,99831.00
2023-05-21T21:13:13.592Z,99814.66
2023-05-21T21:15:40.000Z,99854.31
2023-05-21T21:18:06.502Z,99886.00
2023-05-21T21:20:33.025Z,99878.75
2023-05-21T21:22:59.427Z,99844.16
2023-05-21T21:25:25.947Z,99824.28
2023-05-21T21:27:52.556Z,99811.81
2023-05-21T21:30:19.199Z,99779.03
2023-05-21T21:32:47.436Z,99720.50
2023-05-21T21:35:13.977Z,99714.91
2023-05-21T21:37:40.653Z,99681.81
2023-05-21T21:40:07.956Z,99660.97
2023-05-21T21:42:34.399Z,99643.94
2023-05-21T21:45:00.896Z,99629.31
2023-05-21T21:47:27.553Z,99596.81
2023-05-21T21:49:53.976Z,99589.16
2023-05-21T21:52:20.668Z,99603.91
2023-05-21T21:54:47.370Z,99593.97
2023-05-21T21:57:13.807Z,99609.91
2023-05-21T21:59:40.201Z,99613.66
2023-05-21T22:02:06.616Z,99583.59
2023-05-21T22:04:33.080Z,99576.94
2023-05-21T22:06:59.610Z,99599.28
2023-05-21T22:09:26.091Z,99565.84
2023-05-21T22:11:53.426Z,99562.56
2023-05-21T22:14:19.894Z,99535.63
2023-05-21T22:16:47.584Z,99543.50
2023-05-21T22:19:15.719Z,99518.25
2023-05-21T22:21:43.212Z,99525.34
2023-05-21T22:24:17.812Z,99552.88
2023-05-21T22:26:56.183Z,99533.31
2023-05-21T22:29:22.614Z,99569.06
2023-05-21T22:31:49.074Z,99582.81
2023-05-21T22:34:15.472Z,99573.44
2023-05-21T22:36:43.634Z,99576.09
2023-05-21T22:39:10.170Z,99575.56
2023-05-21T22:41:36.575Z,99576.53
2023-05-21T22:44:03.072Z,99568.06
2023-05-21T22:46:29.497Z,99525.34
2023-05-21T22:48:55.977Z,99521.34
2023-05-21T22:51:22.614Z,99520.75
2023-05-21T22:53:49.050Z,99514.19
2023-05-21T22:56:15.568Z,99515.88
2023-05-21T22:58:42.193Z,99527.72
2023-05-21T23:01:08.644Z,99502.38
2023-05-21T23:03:35.111Z,99505.97
2023-05-21T23:06:01.700Z,99513.00
2023-05-21T23:08:28.216Z,99550.78
2023-05-21T23:10:54.624Z,99528.94
2023-05-21T23:13:21.425Z,99498.25
2023-05-21T23:15:48.404Z,99453.56
2023-05-21T23:18:14.948Z,99487.38
2023-05-21T23:20:41.940Z,99475.06
2023-05-21T23:23:09.502Z,99505.47
2023-05-21T23:25:36.040Z,99461.06
2023-05-21T23:28:03.465Z,99474.47
2023-05-21T23:30:29.888Z,99465.97
2023-05-21T23:32:56.517Z,99498.59
2023-05-21T23:35:23.177Z,99498.47
2023-05-21T23:37:49.610Z,99482.97
2023-05-21T23:40:16.104Z,99442.66
2023-05-21T23:42:43.163Z,99454.34
2023-05-21T23:45:10.027Z,99444.94
2023-05-21T23:47:36.526Z,99425.66
2023-05-21T23:50:02.989Z,99442.66
2023-05-21T23:52:29.438Z,99455.75
2023-05-21T23:54:57.428Z,99454.66
2023-05-21T23:57:24.022Z,99418.38
2023-05-21T23:59:50.445Z,99404.25
